sensor_id;sensor_type;location;lat;lon;timestamp;P1;durP1;ratioP1;P2;durP2;ratioP2
9236;SDS011;24579;42.810;23.214;2022-08-23T00:01:14;16.75;;;13.38;;
9236;SDS011;24579;42.810;23.214;2022-08-23T00:03:44;18.08;;;13.18;;
9236;SDS011;24579;42.810;23.214;2022-08-23T00:06:11;17.08;;;13.10;;
9236;SDS011;24579;42.810;23.214;2022-08-23T00:08:39;19.50;;;13.25;;
9236;SDS011;24579;42.810;23.214;2022-08-23T00:11:22;20.50;;;13.82;;
9236;SDS011;24579;42.810;23.214;2022-08-23T00:13:52;17.25;;;13.35;;
9236;SDS011;24579;42.810;23.214;2022-08-23T00:16:20;19.42;;;13.20;;
9236;SDS011;24579;42.810;23.214;2022-08-23T00:18:47;18.98;;;13.68;;
9236;SDS011;24579;42.810;23.214;2022-08-23T00:21:14;19.77;;;13.38;;
9236;SDS011;24579;42.810;23.214;2022-08-23T00:23:42;16.83;;;13.25;;
9236;SDS011;24579;42.810;23.214;2022-08-23T00:26:09;17.95;;;13.23;;
9236;SDS011;24579;42.810;23.214;2022-08-23T00:28:36;21.50;;;13.48;;
9236;SDS011;24579;42.810;23.214;2022-08-23T00:31:06;19.50;;;13.63;;
9236;SDS011;24579;42.810;23.214;2022-08-23T00:33:33;18.75;;;13.80;;
9236;SDS011;24579;42.810;23.214;2022-08-23T00:36:00;19.45;;;13.32;;
9236;SDS011;24579;42.810;23.214;2022-08-23T00:38:27;14.48;;;12.00;;
9236;SDS011;24579;42.810;23.214;2022-08-23T00:40:54;21.50;;;13.82;;
9236;SDS011;24579;42.810;23.214;2022-08-23T00:43:23;18.05;;;13.60;;
9236;SDS011;24579;42.810;23.214;2022-08-23T00:46:15;21.50;;;13.52;;
9236;SDS011;24579;42.810;23.214;2022-08-23T00:49:06;16.77;;;13.45;;
9236;SDS011;24579;42.810;23.214;2022-08-23T00:51:37;18.08;;;13.52;;
9236;SDS011;24579;42.810;23.214;2022-08-23T00:54:10;18.13;;;14.00;;
9236;SDS011;24579;42.810;23.214;2022-08-23T00:56:40;18.13;;;13.63;;
9236;SDS011;24579;42.810;23.214;2022-08-23T00:59:07;18.83;;;13.73;;
9236;SDS011;24579;42.810;23.214;2022-08-23T01:01:36;18.42;;;12.90;;
9236;SDS011;24579;42.810;23.214;2022-08-23T01:04:03;18.23;;;13.60;;
9236;SDS011;24579;42.810;23.214;2022-08-23T01:06:31;23.38;;;14.23;;
9236;SDS011;24579;42.810;23.214;2022-08-23T01:09:05;22.10;;;14.27;;
9236;SDS011;24579;42.810;23.214;2022-08-23T01:11:35;18.65;;;13.43;;
9236;SDS011;24579;42.810;23.214;2022-08-23T01:14:05;19.92;;;13.50;;
9236;SDS011;24579;42.810;23.214;2022-08-23T01:16:38;21.85;;;14.80;;
9236;SDS011;24579;42.810;23.214;2022-08-23T01:19:13;18.05;;;13.68;;
9236;SDS011;24579;42.810;23.214;2022-08-23T01:21:44;22.40;;;14.15;;
9236;SDS011;24579;42.810;23.214;2022-08-23T01:24:16;23.02;;;15.30;;
9236;SDS011;24579;42.810;23.214;2022-08-23T01:26:44;21.17;;;15.00;;
9236;SDS011;24579;42.810;23.214;2022-08-23T01:29:12;24.30;;;15.70;;
9236;SDS011;24579;42.810;23.214;2022-08-23T01:31:41;19.23;;;15.45;;
9236;SDS011;24579;42.810;23.214;2022-08-23T01:34:09;20.88;;;15.82;;
9236;SDS011;24579;42.810;23.214;2022-08-23T01:36:38;20.25;;;15.93;;
9236;SDS011;24579;42.810;23.214;2022-08-23T01:39:08;22.65;;;16.23;;
9236;SDS011;24579;42.810;23.214;2022-08-23T01:41:36;23.92;;;16.15;;
9236;SDS011;24579;42.810;23.214;2022-08-23T01:44:05;23.15;;;15.20;;
9236;SDS011;24579;42.810;23.214;2022-08-23T01:46:33;21.45;;;16.33;;
9236;SDS011;24579;42.810;23.214;2022-08-23T01:49:02;22.00;;;16.17;;
9236;SDS011;24579;42.810;23.214;2022-08-23T01:51:30;21.90;;;16.30;;
9236;SDS011;24579;42.810;23.214;2022-08-23T01:53:57;28.48;;;17.17;;
9236;SDS011;24579;42.810;23.214;2022-08-23T01:56:24;21.90;;;15.68;;
9236;SDS011;24579;42.810;23.214;2022-08-23T01:58:53;26.52;;;16.23;;
9236;SDS011;24579;42.810;23.214;2022-08-23T02:01:20;23.35;;;16.05;;
9236;SDS011;24579;42.810;23.214;2022-08-23T02:03:47;23.00;;;16.35;;
9236;SDS011;24579;42.810;23.214;2022-08-23T02:06:14;20.17;;;16.58;;
9236;SDS011;24579;42.810;23.214;2022-08-23T02:08:41;21.10;;;16.27;;
9236;SDS011;24579;42.810;23.214;2022-08-23T02:11:27;21.90;;;16.90;;
9236;SDS011;24579;42.810;23.214;2022-08-23T02:13:58;24.73;;;17.67;;
9236;SDS011;24579;42.810;23.214;2022-08-23T02:16:27;23.52;;;16.85;;
9236;SDS011;24579;42.810;23.214;2022-08-23T02:18:58;27.38;;;18.27;;
9236;SDS011;24579;42.810;23.214;2022-08-23T02:21:26;24.92;;;17.67;;
9236;SDS011;24579;42.810;23.214;2022-08-23T02:23:55;29.90;;;21.25;;
9236;SDS011;24579;42.810;23.214;2022-08-23T02:26:22;26.63;;;19.83;;
9236;SDS011;24579;42.810;23.214;2022-08-23T02:28:49;31.50;;;21.15;;
9236;SDS011;24579;42.810;23.214;2022-08-23T02:31:18;29.42;;;21.95;;
9236;SDS011;24579;42.810;23.214;2022-08-23T02:33:45;28.48;;;21.33;;
9236;SDS011;24579;42.810;23.214;2022-08-23T02:36:13;25.80;;;21.30;;
9236;SDS011;24579;42.810;23.214;2022-08-23T02:38:41;26.10;;;20.85;;
9236;SDS011;24579;42.810;23.214;2022-08-23T02:41:08;26.02;;;20.90;;
9236;SDS011;24579;42.810;23.214;2022-08-23T02:43:35;28.33;;;20.80;;
9236;SDS011;24579;42.810;23.214;2022-08-23T02:46:03;26.70;;;20.42;;
9236;SDS011;24579;42.810;23.214;2022-08-23T02:48:31;24.35;;;18.92;;
9236;SDS011;24579;42.810;23.214;2022-08-23T02:50:58;25.77;;;19.63;;
9236;SDS011;24579;42.810;23.214;2022-08-23T02:53:26;22.02;;;17.80;;
9236;SDS011;24579;42.810;23.214;2022-08-23T02:55:53;26.55;;;17.90;;
9236;SDS011;24579;42.810;23.214;2022-08-23T02:58:20;23.58;;;18.27;;
9236;SDS011;24579;42.810;23.214;2022-08-23T03:00:48;27.00;;;18.70;;
9236;SDS011;24579;42.810;23.214;2022-08-23T03:03:15;28.38;;;19.90;;
9236;SDS011;24579;42.810;23.214;2022-08-23T03:05:44;26.23;;;20.15;;
9236;SDS011;24579;42.810;23.214;2022-08-23T03:08:11;26.02;;;20.13;;
9236;SDS011;24579;42.810;23.214;2022-08-23T03:10:41;26.27;;;20.77;;
9236;SDS011;24579;42.810;23.214;2022-08-23T03:13:08;24.38;;;19.63;;
9236;SDS011;24579;42.810;23.214;2022-08-23T03:15:36;24.95;;;17.65;;
9236;SDS011;24579;42.810;23.214;2022-08-23T03:18:03;22.08;;;17.60;;
9236;SDS011;24579;42.810;23.214;2022-08-23T03:20:30;21.10;;;17.60;;
9236;SDS011;24579;42.810;23.214;2022-08-23T03:22:59;21.25;;;17.23;;
9236;SDS011;24579;42.810;23.214;2022-08-23T03:25:26;21.73;;;16.85;;
9236;SDS011;24579;42.810;23.214;2022-08-23T03:27:53;23.85;;;17.13;;
9236;SDS011;24579;42.810;23.214;2022-08-23T03:30:20;25.02;;;16.95;;
9236;SDS011;24579;42.810;23.214;2022-08-23T03:32:47;19.40;;;16.67;;
9236;SDS011;24579;42.810;23.214;2022-08-23T03:35:15;19.85;;;16.33;;
9236;SDS011;24579;42.810;23.214;2022-08-23T03:37:42;17.90;;;15.35;;
9236;SDS011;24579;42.810;23.214;2022-08-23T03:40:11;19.27;;;15.20;;
9236;SDS011;24579;42.810;23.214;2022-08-23T03:42:38;18.52;;;14.38;;
9236;SDS011;24579;42.810;23.214;2022-08-23T03:45:05;22.30;;;14.43;;
9236;SDS011;24579;42.810;23.214;2022-08-23T03:47:32;20.00;;;14.73;;
9236;SDS011;24579;42.810;23.214;2022-08-23T03:50:00;19.70;;;14.18;;
9236;SDS011;24579;42.810;23.214;2022-08-23T03:52:27;16.58;;;13.80;;
9236;SDS011;24579;42.810;23.214;2022-08-23T03:54:54;15.93;;;13.65;;
9236;SDS011;24579;42.810;23.214;2022-08-23T03:57:22;14.88;;;13.05;;
9236;SDS011;24579;42.810;23.214;2022-08-23T03:59:49;15.27;;;12.15;;
9236;SDS011;24579;42.810;23.214;2022-08-23T04:02:16;15.07;;;12.18;;
9236;SDS011;24579;42.810;23.214;2022-08-23T04:04:43;13.35;;;10.90;;
9236;SDS011;24579;42.810;23.214;2022-08-23T04:07:10;13.10;;;11.00;;
9236;SDS011;24579;42.810;23.214;2022-08-23T04:09:37;13.90;;;10.60;;
9236;SDS011;24579;42.810;23.214;2022-08-23T04:12:04;15.07;;;10.90;;
9236;SDS011;24579;42.810;23.214;2022-08-23T04:14:34;13.90;;;11.55;;
9236;SDS011;24579;42.810;23.214;2022-08-23T04:17:01;14.70;;;11.10;;
9236;SDS011;24579;42.810;23.214;2022-08-23T04:19:28;12.77;;;10.85;;
9236;SDS011;24579;42.810;23.214;2022-08-23T04:21:55;17.30;;;11.10;;
9236;SDS011;24579;42.810;23.214;2022-08-23T04:24:22;17.63;;;12.07;;
9236;SDS011;24579;42.810;23.214;2022-08-23T04:26:49;18.83;;;12.18;;
9236;SDS011;24579;42.810;23.214;2022-08-23T04:29:16;13.60;;;12.20;;
9236;SDS011;24579;42.810;23.214;2022-08-23T04:31:45;17.08;;;14.00;;
9236;SDS011;24579;42.810;23.214;2022-08-23T04:34:12;20.60;;;14.63;;
9236;SDS011;24579;42.810;23.214;2022-08-23T04:36:41;18.27;;;14.45;;
9236;SDS011;24579;42.810;23.214;2022-08-23T04:39:09;18.65;;;15.05;;
9236;SDS011;24579;42.810;23.214;2022-08-23T04:41:36;20.30;;;15.15;;
9236;SDS011;24579;42.810;23.214;2022-08-23T04:44:20;20.92;;;15.32;;
9236;SDS011;24579;42.810;23.214;2022-08-23T04:46:49;19.27;;;15.77;;
9236;SDS011;24579;42.810;23.214;2022-08-23T04:49:16;21.40;;;16.00;;
9236;SDS011;24579;42.810;23.214;2022-08-23T04:51:44;20.90;;;16.13;;
9236;SDS011;24579;42.810;23.214;2022-08-23T04:54:11;21.48;;;16.27;;
9236;SDS011;24579;42.810;23.214;2022-08-23T04:56:38;24.92;;;17.38;;
9236;SDS011;24579;42.810;23.214;2022-08-23T04:59:05;20.90;;;16.85;;
9236;SDS011;24579;42.810;23.214;2022-08-23T05:01:32;21.23;;;17.08;;
9236;SDS011;24579;42.810;23.214;2022-08-23T05:04:01;26.85;;;18.13;;
9236;SDS011;24579;42.810;23.214;2022-08-23T05:06:28;24.30;;;17.58;;
9236;SDS011;24579;42.810;23.214;2022-08-23T05:08:56;22.80;;;17.00;;
9236;SDS011;24579;42.810;23.214;2022-08-23T05:11:23;18.25;;;15.70;;
9236;SDS011;24579;42.810;23.214;2022-08-23T05:13:51;20.15;;;15.40;;
9236;SDS011;24579;42.810;23.214;2022-08-23T05:16:18;19.85;;;16.02;;
9236;SDS011;24579;42.810;23.214;2022-08-23T05:18:45;21.00;;;16.75;;
9236;SDS011;24579;42.810;23.214;2022-08-23T05:21:14;20.17;;;16.05;;
9236;SDS011;24579;42.810;23.214;2022-08-23T05:23:42;24.77;;;18.20;;
9236;SDS011;24579;42.810;23.214;2022-08-23T05:26:10;27.23;;;20.13;;
9236;SDS011;24579;42.810;23.214;2022-08-23T05:28:39;27.52;;;20.13;;
9236;SDS011;24579;42.810;23.214;2022-08-23T05:31:08;27.48;;;20.50;;
9236;SDS011;24579;42.810;23.214;2022-08-23T05:33:37;29.27;;;20.25;;
9236;SDS011;24579;42.810;23.214;2022-08-23T05:36:06;25.60;;;19.95;;
9236;SDS011;24579;42.810;23.214;2022-08-23T05:38:36;25.73;;;20.50;;
9236;SDS011;24579;42.810;23.214;2022-08-23T05:41:03;28.05;;;21.02;;
9236;SDS011;24579;42.810;23.214;2022-08-23T05:43:31;27.45;;;19.15;;
9236;SDS011;24579;42.810;23.214;2022-08-23T05:45:59;24.98;;;19.17;;
9236;SDS011;24579;42.810;23.214;2022-08-23T05:48:27;22.88;;;18.38;;
9236;SDS011;24579;42.810;23.214;2022-08-23T05:50:54;24.20;;;19.25;;
9236;SDS011;24579;42.810;23.214;2022-08-23T05:53:21;26.35;;;19.10;;
9236;SDS011;24579;42.810;23.214;2022-08-23T05:55:49;23.33;;;18.65;;
9236;SDS011;24579;42.810;23.214;2022-08-23T05:58:16;23.02;;;18.85;;
9236;SDS011;24579;42.810;23.214;2022-08-23T06:00:43;22.30;;;17.48;;
9236;SDS011;24579;42.810;23.214;2022-08-23T06:03:10;21.98;;;16.80;;
9236;SDS011;24579;42.810;23.214;2022-08-23T06:05:38;24.27;;;17.42;;
9236;SDS011;24579;42.810;23.214;2022-08-23T06:08:06;18.95;;;16.52;;
9236;SDS011;24579;42.810;23.214;2022-08-23T06:10:34;20.27;;;15.80;;
9236;SDS011;24579;42.810;23.214;2022-08-23T06:13:03;18.80;;;15.32;;
9236;SDS011;24579;42.810;23.214;2022-08-23T06:15:30;19.65;;;15.02;;
9236;SDS011;24579;42.810;23.214;2022-08-23T06:17:57;16.33;;;13.93;;
9236;SDS011;24579;42.810;23.214;2022-08-23T06:20:24;17.63;;;14.32;;
9236;SDS011;24579;42.810;23.214;2022-08-23T06:22:51;15.95;;;13.07;;
9236;SDS011;24579;42.810;23.214;2022-08-23T06:25:18;15.75;;;13.00;;
9236;SDS011;24579;42.810;23.214;2022-08-23T06:27:45;14.02;;;12.27;;
9236;SDS011;24579;42.810;23.214;2022-08-23T06:30:14;14.90;;;12.65;;
9236;SDS011;24579;42.810;23.214;2022-08-23T06:32:41;13.88;;;11.82;;
9236;SDS011;24579;42.810;23.214;2022-08-23T06:35:08;20.23;;;12.25;;
9236;SDS011;24579;42.810;23.214;2022-08-23T06:37:35;13.05;;;10.38;;
9236;SDS011;24579;42.810;23.214;2022-08-23T06:40:03;15.52;;;9.65;;
9236;SDS011;24579;42.810;23.214;2022-08-23T06:42:31;9.77;;;7.65;;
9236;SDS011;24579;42.810;23.214;2022-08-23T06:44:58;10.43;;;8.30;;
9236;SDS011;24579;42.810;23.214;2022-08-23T06:47:26;9.35;;;8.23;;
9236;SDS011;24579;42.810;23.214;2022-08-23T06:49:53;10.00;;;8.57;;
9236;SDS011;24579;42.810;23.214;2022-08-23T06:52:20;10.55;;;8.18;;
9236;SDS011;24579;42.810;23.214;2022-08-23T06:54:47;10.00;;;7.72;;
9236;SDS011;24579;42.810;23.214;2022-08-23T06:57:15;9.77;;;7.95;;
9236;SDS011;24579;42.810;23.214;2022-08-23T06:59:42;10.65;;;7.90;;
9236;SDS011;24579;42.810;23.214;2022-08-23T07:02:10;8.45;;;7.10;;
9236;SDS011;24579;42.810;23.214;2022-08-23T07:04:41;9.45;;;7.35;;
9236;SDS011;24579;42.810;23.214;2022-08-23T07:07:08;10.98;;;7.97;;
9236;SDS011;24579;42.810;23.214;2022-08-23T07:09:36;10.43;;;7.68;;
9236;SDS011;24579;42.810;23.214;2022-08-23T07:12:03;7.55;;;6.78;;
9236;SDS011;24579;42.810;23.214;2022-08-23T07:14:31;7.30;;;6.60;;
9236;SDS011;24579;42.810;23.214;2022-08-23T07:16:59;9.32;;;7.18;;
9236;SDS011;24579;42.810;23.214;2022-08-23T07:19:28;9.13;;;7.43;;
9236;SDS011;24579;42.810;23.214;2022-08-23T07:21:58;8.40;;;7.60;;
9236;SDS011;24579;42.810;23.214;2022-08-23T07:24:26;12.43;;;7.18;;
9236;SDS011;24579;42.810;23.214;2022-08-23T07:26:54;8.57;;;7.38;;
9236;SDS011;24579;42.810;23.214;2022-08-23T07:29:21;9.98;;;7.57;;
9236;SDS011;24579;42.810;23.214;2022-08-23T07:31:50;8.07;;;7.13;;
9236;SDS011;24579;42.810;23.214;2022-08-23T07:34:20;9.20;;;6.78;;
9236;SDS011;24579;42.810;23.214;2022-08-23T07:36:48;8.77;;;6.80;;
9236;SDS011;24579;42.810;23.214;2022-08-23T07:39:17;10.43;;;7.03;;
9236;SDS011;24579;42.810;23.214;2022-08-23T07:41:45;7.70;;;6.63;;
9236;SDS011;24579;42.810;23.214;2022-08-23T07:44:12;10.90;;;7.10;;
9236;SDS011;24579;42.810;23.214;2022-08-23T07:46:40;11.38;;;7.50;;
9236;SDS011;24579;42.810;23.214;2022-08-23T07:49:09;10.50;;;7.28;;
9236;SDS011;24579;42.810;23.214;2022-08-23T07:51:37;10.13;;;7.47;;
9236;SDS011;24579;42.810;23.214;2022-08-23T07:54:07;7.93;;;7.13;;
9236;SDS011;24579;42.810;23.214;2022-08-23T07:56:38;8.88;;;8.05;;
9236;SDS011;24579;42.810;23.214;2022-08-23T07:59:05;10.30;;;9.15;;
9236;SDS011;24579;42.810;23.214;2022-08-23T08:01:33;9.90;;;8.73;;
9236;SDS011;24579;42.810;23.214;2022-08-23T08:04:01;10.00;;;7.70;;
9236;SDS011;24579;42.810;23.214;2022-08-23T08:06:29;11.68;;;8.55;;
9236;SDS011;24579;42.810;23.214;2022-08-23T08:08:57;14.05;;;10.73;;
9236;SDS011;24579;42.810;23.214;2022-08-23T08:11:26;12.15;;;10.93;;
9236;SDS011;24579;42.810;23.214;2022-08-23T08:13:57;13.15;;;11.85;;
9236;SDS011;24579;42.810;23.214;2022-08-23T08:16:25;13.93;;;12.10;;
9236;SDS011;24579;42.810;23.214;2022-08-23T08:18:55;12.77;;;11.38;;
9236;SDS011;24579;42.810;23.214;2022-08-23T08:21:24;12.95;;;10.85;;
9236;SDS011;24579;42.810;23.214;2022-08-23T08:23:52;15.55;;;11.32;;
9236;SDS011;24579;42.810;23.214;2022-08-23T08:26:20;15.35;;;12.20;;
9236;SDS011;24579;42.810;23.214;2022-08-23T08:28:49;16.23;;;11.57;;
9236;SDS011;24579;42.810;23.214;2022-08-23T08:31:17;14.57;;;12.45;;
9236;SDS011;24579;42.810;23.214;2022-08-23T08:33:44;13.65;;;12.32;;
9236;SDS011;24579;42.810;23.214;2022-08-23T08:36:26;11.40;;;10.15;;
9236;SDS011;24579;42.810;23.214;2022-08-23T08:38:55;14.88;;;12.00;;
9236;SDS011;24579;42.810;23.214;2022-08-23T08:41:24;13.85;;;12.45;;
9236;SDS011;24579;42.810;23.214;2022-08-23T08:44:07;18.45;;;13.88;;
9236;SDS011;24579;42.810;23.214;2022-08-23T08:46:42;14.57;;;11.93;;
9236;SDS011;24579;42.810;23.214;2022-08-23T08:49:12;13.82;;;12.38;;
9236;SDS011;24579;42.810;23.214;2022-08-23T08:51:46;16.17;;;13.20;;
9236;SDS011;24579;42.810;23.214;2022-08-23T08:54:18;16.02;;;13.00;;
9236;SDS011;24579;42.810;23.214;2022-08-23T08:56:50;13.65;;;11.82;;
9236;SDS011;24579;42.810;23.214;2022-08-23T08:59:20;15.10;;;11.48;;
9236;SDS011;24579;42.810;23.214;2022-08-23T09:01:51;16.67;;;12.40;;
9236;SDS011;24579;42.810;23.214;2022-08-23T09:04:18;15.63;;;12.02;;
9236;SDS011;24579;42.810;23.214;2022-08-23T09:06:49;13.50;;;11.90;;
9236;SDS011;24579;42.810;23.214;2022-08-23T09:09:26;13.32;;;11.82;;
9236;SDS011;24579;42.810;23.214;2022-08-23T09:12:08;12.25;;;10.85;;
9236;SDS011;24579;42.810;23.214;2022-08-23T09:14:53;13.60;;;11.52;;
9236;SDS011;24579;42.810;23.214;2022-08-23T09:17:34;12.02;;;10.77;;
9236;SDS011;24579;42.810;23.214;2022-08-23T09:20:08;10.95;;;9.80;;
9236;SDS011;24579;42.810;23.214;2022-08-23T09:22:39;10.73;;;9.73;;
9236;SDS011;24579;42.810;23.214;2022-08-23T09:25:07;10.40;;;9.40;;
9236;SDS011;24579;42.810;23.214;2022-08-23T09:27:35;12.43;;;9.82;;
9236;SDS011;24579;42.810;23.214;2022-08-23T09:30:03;12.70;;;9.77;;
9236;SDS011;24579;42.810;23.214;2022-08-23T09:32:33;10.90;;;9.90;;
9236;SDS011;24579;42.810;23.214;2022-08-23T09:35:10;9.80;;;8.85;;
9236;SDS011;24579;42.810;23.214;2022-08-23T09:37:47;11.48;;;8.82;;
9236;SDS011;24579;42.810;23.214;2022-08-23T09:40:26;10.38;;;8.77;;
9236;SDS011;24579;42.810;23.214;2022-08-23T09:43:05;11.07;;;9.25;;
9236;SDS011;24579;42.810;23.214;2022-08-23T09:45:36;9.98;;;8.90;;
9236;SDS011;24579;42.810;23.214;2022-08-23T09:48:08;10.25;;;9.20;;
9236;SDS011;24579;42.810;23.214;2022-08-23T09:50:39;10.02;;;9.02;;
9236;SDS011;24579;42.810;23.214;2022-08-23T09:53:22;11.45;;;9.63;;
9236;SDS011;24579;42.810;23.214;2022-08-23T09:55:51;9.80;;;8.82;;
9236;SDS011;24579;42.810;23.214;2022-08-23T09:58:23;10.45;;;9.30;;
9236;SDS011;24579;42.810;23.214;2022-08-23T10:01:04;10.68;;;9.52;;
9236;SDS011;24579;42.810;23.214;2022-08-23T10:03:37;12.27;;;9.23;;
9236;SDS011;24579;42.810;23.214;2022-08-23T10:06:05;10.68;;;9.48;;
9236;SDS011;24579;42.810;23.214;2022-08-23T10:08:34;10.73;;;9.15;;
9236;SDS011;24579;42.810;23.214;2022-08-23T10:11:06;9.93;;;8.93;;
9236;SDS011;24579;42.810;23.214;2022-08-23T10:13:41;9.80;;;8.80;;
9236;SDS011;24579;42.810;23.214;2022-08-23T10:16:11;9.85;;;8.95;;
9236;SDS011;24579;42.810;23.214;2022-08-23T10:18:50;10.32;;;9.35;;
9236;SDS011;24579;42.810;23.214;2022-08-23T10:21:24;10.15;;;9.15;;
9236;SDS011;24579;42.810;23.214;2022-08-23T10:26:51;11.85;;;8.90;;
9236;SDS011;24579;42.810;23.214;2022-08-23T10:29:30;10.05;;;8.95;;
9236;SDS011;24579;42.810;23.214;2022-08-23T10:32:04;10.85;;;9.30;;
9236;SDS011;24579;42.810;23.214;2022-08-23T10:34:48;10.52;;;9.43;;
9236;SDS011;24579;42.810;23.214;2022-08-23T10:37:30;10.98;;;9.95;;
9236;SDS011;24579;42.810;23.214;2022-08-23T10:40:09;7.95;;;7.25;;
9236;SDS011;24579;42.810;23.214;2022-08-23T10:42:42;7.72;;;7.00;;
9236;SDS011;24579;42.810;23.214;2022-08-23T10:45:21;8.35;;;7.57;;
9236;SDS011;24579;42.810;23.214;2022-08-23T10:48:07;7.90;;;7.20;;
9236;SDS011;24579;42.810;23.214;2022-08-23T10:50:46;8.85;;;8.00;;
9236;SDS011;24579;42.810;23.214;2022-08-23T10:53:17;8.27;;;7.47;;
9236;SDS011;24579;42.810;23.214;2022-08-23T10:55:47;8.38;;;7.57;;
9236;SDS011;24579;42.810;23.214;2022-08-23T10:58:27;10.57;;;7.65;;
9236;SDS011;24579;42.810;23.214;2022-08-23T11:00:59;9.25;;;7.50;;
9236;SDS011;24579;42.810;23.214;2022-08-23T11:03:27;10.18;;;7.40;;
9236;SDS011;24579;42.810;23.214;2022-08-23T11:09:05;9.60;;;8.38;;
9236;SDS011;24579;42.810;23.214;2022-08-23T11:11:39;8.93;;;7.28;;
9236;SDS011;24579;42.810;23.214;2022-08-23T11:14:09;8.10;;;7.30;;
9236;SDS011;24579;42.810;23.214;2022-08-23T11:16:38;8.10;;;7.38;;
9236;SDS011;24579;42.810;23.214;2022-08-23T11:19:11;12.48;;;7.57;;
9236;SDS011;24579;42.810;23.214;2022-08-23T11:21:50;9.52;;;7.13;;
9236;SDS011;24579;42.810;23.214;2022-08-23T11:24:31;8.48;;;7.68;;
9236;SDS011;24579;42.810;23.214;2022-08-23T11:27:26;8.68;;;7.15;;
9236;SDS011;24579;42.810;23.214;2022-08-23T11:32:59;8.30;;;7.47;;
9236;SDS011;24579;42.810;23.214;2022-08-23T11:35:38;7.35;;;6.60;;
9236;SDS011;24579;42.810;23.214;2022-08-23T11:38:10;11.70;;;7.28;;
9236;SDS011;24579;42.810;23.214;2022-08-23T11:40:39;8.02;;;6.80;;
9236;SDS011;24579;42.810;23.214;2022-08-23T11:43:22;9.88;;;7.80;;
9236;SDS011;24579;42.810;23.214;2022-08-23T11:45:53;7.55;;;6.30;;
9236;SDS011;24579;42.810;23.214;2022-08-23T11:48:38;7.22;;;6.53;;
9236;SDS011;24579;42.810;23.214;2022-08-23T11:51:17;6.88;;;6.28;;
9236;SDS011;24579;42.810;23.214;2022-08-23T11:56:54;5.57;;;5.07;;
9236;SDS011;24579;42.810;23.214;2022-08-23T11:59:40;6.03;;;5.47;;
9236;SDS011;24579;42.810;23.214;2022-08-23T12:02:34;5.70;;;5.20;;
9236;SDS011;24579;42.810;23.214;2022-08-23T12:08:44;6.57;;;5.70;;
9236;SDS011;24579;42.810;23.214;2022-08-23T12:11:19;8.20;;;5.80;;
9236;SDS011;24579;42.810;23.214;2022-08-23T12:13:52;11.23;;;5.47;;
9236;SDS011;24579;42.810;23.214;2022-08-23T12:19:07;6.20;;;4.85;;
9236;SDS011;24579;42.810;23.214;2022-08-23T12:21:41;6.00;;;4.10;;
9236;SDS011;24579;42.810;23.214;2022-08-23T12:24:13;7.85;;;5.32;;
9236;SDS011;24579;42.810;23.214;2022-08-23T12:26:45;5.80;;;5.15;;
9236;SDS011;24579;42.810;23.214;2022-08-23T12:29:25;5.95;;;5.35;;
9236;SDS011;24579;42.810;23.214;2022-08-23T12:32:06;7.57;;;5.43;;
9236;SDS011;24579;42.810;23.214;2022-08-23T12:34:44;5.40;;;4.90;;
9236;SDS011;24579;42.810;23.214;2022-08-23T12:37:20;8.00;;;5.35;;
9236;SDS011;24579;42.810;23.214;2022-08-23T12:39:55;8.77;;;5.75;;
9236;SDS011;24579;42.810;23.214;2022-08-23T12:42:27;7.63;;;6.82;;
9236;SDS011;24579;42.810;23.214;2022-08-23T12:44:59;8.90;;;7.45;;
9236;SDS011;24579;42.810;23.214;2022-08-23T12:47:30;9.50;;;6.63;;
9236;SDS011;24579;42.810;23.214;2022-08-23T12:49:58;8.48;;;6.68;;
9236;SDS011;24579;42.810;23.214;2022-08-23T12:52:28;7.85;;;6.80;;
9236;SDS011;24579;42.810;23.214;2022-08-23T12:54:56;8.18;;;7.10;;
9236;SDS011;24579;42.810;23.214;2022-08-23T12:57:29;7.93;;;7.07;;
9236;SDS011;24579;42.810;23.214;2022-08-23T13:00:03;9.70;;;7.13;;
9236;SDS011;24579;42.810;23.214;2022-08-23T13:02:42;11.27;;;7.35;;
9236;SDS011;24579;42.810;23.214;2022-08-23T13:05:16;8.43;;;6.95;;
9236;SDS011;24579;42.810;23.214;2022-08-23T13:07:48;7.95;;;7.15;;
9236;SDS011;24579;42.810;23.214;2022-08-23T13:10:16;9.95;;;7.32;;
9236;SDS011;24579;42.810;23.214;2022-08-23T13:12:44;7.15;;;6.43;;
9236;SDS011;24579;42.810;23.214;2022-08-23T13:15:11;7.22;;;6.57;;
9236;SDS011;24579;42.810;23.214;2022-08-23T13:17:59;8.23;;;6.97;;
9236;SDS011;24579;42.810;23.214;2022-08-23T13:20:26;7.00;;;6.10;;
9236;SDS011;24579;42.810;23.214;2022-08-23T13:22:55;8.18;;;6.80;;
9236;SDS011;24579;42.810;23.214;2022-08-23T13:25:26;7.32;;;6.50;;
9236;SDS011;24579;42.810;23.214;2022-08-23T13:27:57;8.93;;;6.63;;
9236;SDS011;24579;42.810;23.214;2022-08-23T13:30:27;7.00;;;6.40;;
9236;SDS011;24579;42.810;23.214;2022-08-23T13:35:45;7.82;;;5.78;;
9236;SDS011;24579;42.810;23.214;2022-08-23T13:38:23;6.57;;;5.80;;
9236;SDS011;24579;42.810;23.214;2022-08-23T13:40:56;5.65;;;5.13;;
9236;SDS011;24579;42.810;23.214;2022-08-23T13:43:28;9.48;;;6.00;;
9236;SDS011;24579;42.810;23.214;2022-08-23T13:45:58;6.05;;;5.45;;
9236;SDS011;24579;42.810;23.214;2022-08-23T13:48:34;6.28;;;5.65;;
9236;SDS011;24579;42.810;23.214;2022-08-23T13:51:16;6.82;;;5.60;;
9236;SDS011;24579;42.810;23.214;2022-08-23T13:53:44;8.95;;;5.68;;
9236;SDS011;24579;42.810;23.214;2022-08-23T13:56:12;6.30;;;5.70;;
9236;SDS011;24579;42.810;23.214;2022-08-23T13:58:41;6.45;;;5.30;;
9236;SDS011;24579;42.810;23.214;2022-08-23T14:01:10;6.63;;;5.47;;
9236;SDS011;24579;42.810;23.214;2022-08-23T14:03:43;8.73;;;5.90;;
9236;SDS011;24579;42.810;23.214;2022-08-23T14:06:10;6.43;;;5.68;;
9236;SDS011;24579;42.810;23.214;2022-08-23T14:08:37;6.18;;;5.63;;
9236;SDS011;24579;42.810;23.214;2022-08-23T14:11:05;7.38;;;5.63;;
9236;SDS011;24579;42.810;23.214;2022-08-23T14:13:32;9.90;;;5.65;;
9236;SDS011;24579;42.810;23.214;2022-08-23T14:16:04;6.28;;;5.60;;
9236;SDS011;24579;42.810;23.214;2022-08-23T14:18:33;6.20;;;5.65;;
9236;SDS011;24579;42.810;23.214;2022-08-23T14:21:00;7.10;;;5.30;;
9236;SDS011;24579;42.810;23.214;2022-08-23T14:23:27;7.82;;;5.88;;
9236;SDS011;24579;42.810;23.214;2022-08-23T14:25:54;7.00;;;5.40;;
9236;SDS011;24579;42.810;23.214;2022-08-23T14:28:23;6.40;;;5.00;;
9236;SDS011;24579;42.810;23.214;2022-08-23T14:30:54;6.32;;;5.22;;
9236;SDS011;24579;42.810;23.214;2022-08-23T14:33:22;5.90;;;5.10;;
9236;SDS011;24579;42.810;23.214;2022-08-23T14:35:50;10.05;;;5.68;;
9236;SDS011;24579;42.810;23.214;2022-08-23T14:38:18;8.13;;;6.20;;
9236;SDS011;24579;42.810;23.214;2022-08-23T14:40:47;8.50;;;5.47;;
9236;SDS011;24579;42.810;23.214;2022-08-23T14:43:16;6.82;;;5.13;;
9236;SDS011;24579;42.810;23.214;2022-08-23T14:45:44;6.72;;;5.13;;
9236;SDS011;24579;42.810;23.214;2022-08-23T14:48:11;8.38;;;5.35;;
9236;SDS011;24579;42.810;23.214;2022-08-23T14:50:40;7.95;;;5.18;;
9236;SDS011;24579;42.810;23.214;2022-08-23T14:53:08;6.75;;;5.00;;
9236;SDS011;24579;42.810;23.214;2022-08-23T14:55:35;8.02;;;5.50;;
9236;SDS011;24579;42.810;23.214;2022-08-23T14:58:02;10.88;;;5.60;;
9236;SDS011;24579;42.810;23.214;2022-08-23T15:00:30;8.40;;;5.80;;
9236;SDS011;24579;42.810;23.214;2022-08-23T15:02:57;8.50;;;6.45;;
9236;SDS011;24579;42.810;23.214;2022-08-23T15:05:24;7.43;;;5.90;;
9236;SDS011;24579;42.810;23.214;2022-08-23T15:07:53;8.20;;;6.22;;
9236;SDS011;24579;42.810;23.214;2022-08-23T15:10:20;9.10;;;6.65;;